createdAt,value
2019-04-20T00:04:03.506Z,3.67
2019-04-20T00:09:14.095Z,3.70
2019-04-20T00:14:20.921Z,3.50
2019-04-20T00:19:26.219Z,4.00
2019-04-20T00:24:34.421Z,3.03
2019-04-20T00:29:54.736Z,3.40
2019-04-20T00:34:47.063Z,3.10
2019-04-20T00:39:50.849Z,3.30
2019-04-20T00:45:05.682Z,3.63
2019-04-20T00:50:19.858Z,3.33
2019-04-20T00:55:08.489Z,3.30
2019-04-20T01:00:33.912Z,3.17
2019-04-20T01:05:58.252Z,3.13
2019-04-20T01:10:49.109Z,3.83
2019-04-20T01:15:58.794Z,3.60
2019-04-20T01:21:04.678Z,3.80
2019-04-20T01:26:09.270Z,3.20
2019-04-20T01:31:19.447Z,3.13
2019-04-20T01:36:36.804Z,3.30
2019-04-20T01:41:22.904Z,3.03
2019-04-20T01:46:30.007Z,3.37
2019-04-20T01:51:47.256Z,3.63
2019-04-20T01:56:55.953Z,3.30
2019-04-20T02:02:13.169Z,3.20
2019-04-20T02:07:18.435Z,3.23
2019-04-20T02:12:26.115Z,3.37
2019-04-20T02:17:38.734Z,3.30
2019-04-20T02:22:54.189Z,3.67
2019-04-20T02:27:48.741Z,3.37
2019-04-20T02:33:34.977Z,3.37
2019-04-20T02:39:15.266Z,3.37
2019-04-20T02:44:04.423Z,3.63
2019-04-20T02:48:50.249Z,3.10
2019-04-20T02:54:15.179Z,3.60
2019-04-20T02:59:26.960Z,3.13
2019-04-20T03:03:46.455Z,3.73
2019-04-20T03:09:10.083Z,3.60
2019-04-20T03:14:09.262Z,3.03
2019-04-20T03:19:12.622Z,3.70
2019-04-20T03:24:35.738Z,3.20
2019-04-20T03:29:53.920Z,3.40
2019-04-20T03:35:06.954Z,3.50
2019-04-20T03:39:56.880Z,3.27
2019-04-20T03:44:58.675Z,3.17
2019-04-20T03:50:25.011Z,3.20
2019-04-20T03:55:52.926Z,3.60
2019-04-20T04:01:22.660Z,3.27
2019-04-20T04:06:21.183Z,3.43
2019-04-20T04:11:31.459Z,3.03
2019-04-20T04:16:22.178Z,3.63
2019-04-20T04:21:40.782Z,3.60
2019-04-20T04:26:47.533Z,3.83
2019-04-20T04:32:10.540Z,3.63
2019-04-20T04:37:07.306Z,3.37
2019-04-20T04:42:19.227Z,3.40
2019-04-20T04:47:06.338Z,3.40
2019-04-20T04:52:12.384Z,3.63
2019-04-20T04:57:13.837Z,3.30
2019-04-20T05:02:22.517Z,3.70
2019-04-20T05:07:38.332Z,3.10
2019-04-20T05:12:35.061Z,3.67
2019-04-20T05:18:02.054Z,3.67
2019-04-20T05:23:11.468Z,4.17
2019-04-20T05:28:19.354Z,3.07
2019-04-20T05:33:21.285Z,3.90
2019-04-20T05:38:41.996Z,3.43
2019-04-20T05:43:56.327Z,3.23
2019-04-20T05:49:12.664Z,3.40
2019-04-20T05:54:13.496Z,3.30
2019-04-20T05:59:23.437Z,3.10
2019-04-20T06:04:38.832Z,3.63
2019-04-20T06:09:33.587Z,3.60
2019-04-20T06:14:57.153Z,3.67
2019-04-20T06:20:12.701Z,4.43
2019-04-20T06:30:19.185Z,5.13
2019-04-20T06:35:51.626Z,4.30
2019-04-20T06:45:51.095Z,6.03
2019-04-20T06:50:53.035Z,5.57
2019-04-20T06:56:07.110Z,5.63
2019-04-20T07:01:11.199Z,5.00
2019-04-20T07:06:35.622Z,5.53
2019-04-20T07:11:23.873Z,5.53
2019-04-20T07:16:36.075Z,5.60
2019-04-20T07:22:12.013Z,5.10
2019-04-20T07:27:00.820Z,5.60
2019-04-20T07:32:01.462Z,6.33
2019-04-20T07:42:29.098Z,5.87
2019-04-20T07:47:40.559Z,5.90
2019-04-20T07:52:31.911Z,4.30
2019-04-20T07:57:42.902Z,6.03
2019-04-20T08:03:22.018Z,5.17
2019-04-20T08:08:25.349Z,5.57
2019-04-20T08:18:42.844Z,5.37
2019-04-20T08:23:47.347Z,5.57
2019-04-20T08:28:42.355Z,5.30
2019-04-20T08:34:15.240Z,5.63
2019-04-20T08:39:22.621Z,5.57
2019-04-20T08:44:34.676Z,4.63
2019-04-20T08:49:27.721Z,4.60
2019-04-20T08:54:26.094Z,5.20
2019-04-20T08:59:14.309Z,5.70
2019-04-20T09:04:25.449Z,5.20
2019-04-20T09:14:35.167Z,5.10
2019-04-20T09:19:52.741Z,4.97
2019-04-20T09:25:14.757Z,5.00
2019-04-20T09:30:17.396Z,4.77
2019-04-20T09:35:19.318Z,4.93
2019-04-20T09:40:31.173Z,5.33
2019-04-20T09:45:27.776Z,5.23
2019-04-20T09:50:44.996Z,4.70
2019-04-20T09:55:52.189Z,4.57
2019-04-20T10:00:53.897Z,5.13
2019-04-20T10:05:47.580Z,4.33
2019-04-20T10:10:54.204Z,5.07
2019-04-20T10:15:59.711Z,4.80
2019-04-20T10:21:05.476Z,4.57
2019-04-20T10:26:10.140Z,4.33
2019-04-20T10:31:14.804Z,4.50
2019-04-20T10:36:30.309Z,4.10
2019-04-20T10:41:45.158Z,4.40
2019-04-20T10:46:42.950Z,4.13
2019-04-20T10:51:49.550Z,4.53
2019-04-20T10:56:55.410Z,4.33
2019-04-20T11:02:01.538Z,3.87
2019-04-20T11:07:06.213Z,3.50
2019-04-20T11:12:12.586Z,3.50
2019-04-20T11:17:18.210Z,3.60
2019-04-20T11:22:24.486Z,3.80
2019-04-20T11:27:30.031Z,4.03
2019-04-20T11:32:35.944Z,4.07
2019-04-20T11:37:40.622Z,4.27
2019-04-20T11:42:47.822Z,3.77
2019-04-20T11:47:53.745Z,4.00
2019-04-20T11:53:01.533Z,3.40
2019-04-20T11:58:06.126Z,3.80
2019-04-20T12:03:24.783Z,4.20
2019-04-20T12:08:23.089Z,4.43
2019-04-20T12:13:29.079Z,3.30
2019-04-20T12:18:33.785Z,3.90
2019-04-20T12:23:40.315Z,4.40
2019-04-20T12:28:45.482Z,3.80
2019-04-20T12:33:50.486Z,4.47
2019-04-20T12:38:55.172Z,3.87
2019-04-20T12:44:01.751Z,3.10
2019-04-20T12:49:07.666Z,4.00
2019-04-20T12:54:16.508Z,3.33
2019-04-20T12:59:21.257Z,4.10
2019-04-20T13:04:30.072Z,3.60
2019-04-20T13:09:38.745Z,4.20
2019-04-20T13:15:02.477Z,3.80
2019-04-20T13:20:08.037Z,3.57
2019-04-20T13:25:14.986Z,3.67
2019-04-20T13:30:19.719Z,4.00
2019-04-20T13:35:26.243Z,3.97
2019-04-20T13:40:31.197Z,4.53
2019-04-20T13:45:37.198Z,3.50
2019-04-20T13:50:44.168Z,2.97
2019-04-20T13:55:49.839Z,3.83
2019-04-20T14:01:12.684Z,4.10
2019-04-20T14:06:18.458Z,3.20
2019-04-20T14:11:23.192Z,3.20
2019-04-20T14:16:29.267Z,3.07
2019-04-20T14:21:34.322Z,3.53
2019-04-20T14:26:40.750Z,3.33
2019-04-20T14:31:45.943Z,3.40
2019-04-20T14:36:50.910Z,3.60
2019-04-20T14:41:56.243Z,3.87
2019-04-20T14:47:00.920Z,3.73
2019-04-20T14:52:08.058Z,3.70
2019-04-20T14:57:13.761Z,3.23
2019-04-20T15:02:21.642Z,4.07
2019-04-20T15:07:26.708Z,3.83
2019-04-20T15:12:41.698Z,3.53
2019-04-20T15:17:53.509Z,4.13
2019-04-20T15:23:01.281Z,3.37
2019-04-20T15:28:06.132Z,3.63
2019-04-20T15:33:12.698Z,3.20
2019-04-20T15:38:17.614Z,3.30
2019-04-20T15:43:24.954Z,2.90
2019-04-20T15:48:29.979Z,3.90
2019-04-20T15:53:35.505Z,4.33
2019-04-20T15:58:40.704Z,4.33
2019-04-20T16:03:53.167Z,3.97
2019-04-20T16:08:59.999Z,5.70
2019-04-20T16:14:06.810Z,4.77
2019-04-20T16:19:25.824Z,4.20
2019-04-20T16:24:19.923Z,4.43
2019-04-20T16:29:25.780Z,5.23
2019-04-20T16:34:31.715Z,5.83
2019-04-20T16:39:38.560Z,5.87
2019-04-20T16:44:45.217Z,4.40
2019-04-20T16:49:50.961Z,4.53
2019-04-20T16:54:57.618Z,5.60
2019-04-20T17:00:03.115Z,5.67
2019-04-20T17:05:09.723Z,5.40
2019-04-20T17:10:15.914Z,5.60
2019-04-20T17:15:21.552Z,6.10
2019-04-20T17:20:28.580Z,5.90
2019-04-20T17:25:34.366Z,5.57
2019-04-20T17:30:59.000Z,5.57
2019-04-20T17:36:11.559Z,6.47
2019-04-20T17:41:34.116Z,6.33
2019-04-20T17:46:33.012Z,5.67
2019-04-20T17:51:47.806Z,6.17
2019-04-20T17:56:36.398Z,6.37
2019-04-20T18:02:13.973Z,6.00
2019-04-20T18:07:38.861Z,5.40
2019-04-20T18:12:31.106Z,6.50
2019-04-20T18:17:58.811Z,6.60
2019-04-20T18:22:51.706Z,6.30
2019-04-20T18:28:11.145Z,5.53
2019-04-20T18:33:01.153Z,5.93
2019-04-20T18:38:12.636Z,4.90
2019-04-20T18:43:20.107Z,6.23
2019-04-20T18:48:45.169Z,5.40
2019-04-20T18:53:34.214Z,4.73
2019-04-20T18:58:33.464Z,5.97
2019-04-20T19:03:41.830Z,5.20
2019-04-20T19:08:49.432Z,5.30
2019-04-20T19:14:10.310Z,5.07
2019-04-20T19:19:23.403Z,5.47
2019-04-20T19:24:21.174Z,5.17
2019-04-20T19:29:34.401Z,4.27
2019-04-20T19:34:45.300Z,4.10
2019-04-20T19:39:54.696Z,4.20
2019-04-20T19:45:01.909Z,4.70
2019-04-20T19:50:26.997Z,4.63
2019-04-20T19:55:14.309Z,4.07
2019-04-20T20:00:08.211Z,4.10
2019-04-20T20:05:16.306Z,4.10
2019-04-20T20:10:30.240Z,4.20
2019-04-20T20:15:34.338Z,4.03
2019-04-20T20:20:55.486Z,4.30
2019-04-20T20:25:49.619Z,3.70
2019-04-20T20:31:09.717Z,4.20
2019-04-20T20:36:11.806Z,3.47
2019-04-20T20:41:17.923Z,4.43
2019-04-20T20:46:28.451Z,3.43
2019-04-20T20:51:45.043Z,4.27
2019-04-20T20:56:36.715Z,4.10
2019-04-20T21:01:44.330Z,3.73
2019-04-20T21:06:44.603Z,3.93
2019-04-20T21:11:52.054Z,3.70
2019-04-20T21:17:02.899Z,3.90
2019-04-20T21:22:11.465Z,3.83
2019-04-20T21:27:14.898Z,3.97
2019-04-20T21:32:19.715Z,3.73
2019-04-20T21:37:26.975Z,3.87
2019-04-20T21:42:34.495Z,3.97
2019-04-20T21:47:39.786Z,4.00
2019-04-20T21:52:48.507Z,3.90
2019-04-20T21:57:53.921Z,3.63
2019-04-20T22:03:03.941Z,3.30
2019-04-20T22:08:07.829Z,4.00
2019-04-20T22:13:11.980Z,3.87
2019-04-20T22:18:21.272Z,3.77
2019-04-20T22:23:45.450Z,3.93
2019-04-20T22:28:29.800Z,3.37
2019-04-20T22:33:41.153Z,3.83
2019-04-20T22:39:05.220Z,3.87
2019-04-20T22:44:18.728Z,3.60
2019-04-20T22:49:35.912Z,3.77
2019-04-20T22:54:42.281Z,3.70
2019-04-20T22:59:44.775Z,3.70
2019-04-20T23:04:38.940Z,3.70
2019-04-20T23:09:50.837Z,3.60
2019-04-20T23:14:52.330Z,3.37
2019-04-20T23:20:00.937Z,3.13
2019-04-20T23:25:03.374Z,3.43
2019-04-20T23:30:14.815Z,3.70
2019-04-20T23:35:18.657Z,4.07
2019-04-20T23:40:21.721Z,3.17
2019-04-20T23:45:39.418Z,3.30
2019-04-20T23:51:02.789Z,4.03
2019-04-20T23:55:48.219Z,3.50
